createdAt,value
2024-01-30T00:01:20.205Z,81.99
2024-01-30T00:03:48.339Z,80.99
2024-01-30T00:06:15.279Z,77.53
2024-01-30T00:08:41.961Z,80.57
2024-01-30T00:11:08.908Z,77.81
2024-01-30T00:13:35.558Z,80.29
2024-01-30T00:16:02.206Z,79.62
2024-01-30T00:18:28.880Z,69.51
2024-01-30T00:20:56.856Z,81.15
2024-01-30T00:23:23.483Z,79.97
2024-01-30T00:25:50.986Z,80.25
2024-01-30T00:28:17.783Z,79.22
2024-01-30T00:30:44.656Z,80.09
2024-01-30T00:33:11.357Z,80.06
2024-01-30T00:35:37.980Z,80.03
2024-01-30T00:38:07.839Z,80.60
2024-01-30T00:40:34.444Z,79.18
2024-01-30T00:43:01.235Z,79.16
2024-01-30T00:45:27.848Z,79.87
2024-01-30T00:47:54.607Z,80.47
2024-01-30T00:50:21.312Z,80.45
2024-01-30T00:52:48.030Z,79.97
2024-01-30T00:55:16.216Z,79.14
2024-01-30T00:57:45.633Z,79.96
2024-01-30T01:00:13.875Z,80.27
2024-01-30T01:02:40.860Z,79.17
2024-01-30T01:05:08.209Z,77.54
2024-01-30T01:07:35.041Z,79.07
2024-01-30T01:10:01.902Z,79.74
2024-01-30T01:12:29.934Z,79.85
2024-01-30T01:14:56.578Z,80.12
2024-01-30T01:17:23.271Z,79.92
2024-01-30T01:19:49.978Z,80.16
2024-01-30T01:22:18.364Z,79.66
2024-01-30T01:24:45.140Z,79.67
2024-01-30T01:27:12.440Z,79.83
2024-01-30T01:29:40.373Z,80.21
2024-01-30T01:32:07.006Z,79.83
2024-01-30T01:34:33.785Z,70.74
2024-01-30T01:37:01.116Z,68.43
2024-01-30T01:39:27.757Z,83.54
2024-01-30T01:41:54.379Z,74.85
2024-01-30T01:44:21.331Z,81.26
2024-01-30T01:46:49.957Z,75.87
2024-01-30T01:49:16.888Z,73.39
2024-01-30T01:51:45.987Z,80.50
2024-01-30T01:54:13.173Z,80.43
2024-01-30T01:56:40.136Z,80.58
2024-01-30T01:59:10.793Z,79.81
2024-01-30T02:01:38.620Z,80.01
2024-01-30T02:04:08.157Z,78.51
2024-01-30T02:06:35.237Z,80.10
2024-01-30T02:09:02.019Z,80.21
2024-01-30T02:11:29.546Z,79.77
2024-01-30T02:13:56.220Z,76.63
2024-01-30T02:16:22.985Z,79.66
2024-01-30T02:18:49.809Z,80.84
2024-01-30T02:21:18.472Z,69.43
2024-01-30T02:23:47.545Z,80.52
2024-01-30T02:26:14.289Z,81.02
2024-01-30T02:28:40.963Z,80.64
2024-01-30T02:31:07.768Z,79.95
2024-01-30T02:33:34.575Z,80.08
2024-01-30T02:36:02.385Z,67.76
2024-01-30T02:38:30.405Z,82.54
2024-01-30T02:40:59.749Z,81.37
2024-01-30T02:43:26.624Z,81.02
2024-01-30T02:45:53.304Z,80.60
2024-01-30T02:48:19.964Z,80.06
2024-01-30T02:50:48.048Z,79.38
2024-01-30T02:53:14.887Z,80.03
2024-01-30T02:55:43.084Z,80.39
2024-01-30T02:58:09.748Z,80.45
2024-01-30T03:00:36.500Z,80.03
2024-01-30T03:03:03.300Z,79.90
2024-01-30T03:05:30.143Z,69.14
2024-01-30T03:07:56.858Z,71.13
2024-01-30T03:10:23.849Z,74.53
2024-01-30T03:12:51.976Z,85.36
2024-01-30T03:15:18.646Z,83.37
2024-01-30T03:17:45.354Z,81.18
2024-01-30T03:20:12.617Z,81.05
2024-01-30T03:22:39.273Z,80.75
2024-01-30T03:25:07.426Z,78.35
2024-01-30T03:27:34.197Z,68.80
2024-01-30T03:30:02.222Z,81.84
2024-01-30T03:32:28.894Z,80.90
2024-01-30T03:34:55.710Z,80.44
2024-01-30T03:37:22.544Z,80.08
2024-01-30T03:39:49.267Z,80.10
2024-01-30T03:42:15.970Z,79.95
2024-01-30T03:44:42.625Z,80.22
2024-01-30T03:47:10.680Z,80.67
2024-01-30T03:49:37.470Z,80.28
2024-01-30T03:52:05.096Z,80.02
2024-01-30T03:54:31.765Z,71.04
2024-01-30T03:56:58.397Z,81.48
2024-01-30T03:59:25.445Z,80.64
2024-01-30T04:01:52.700Z,80.31
2024-01-30T04:04:21.161Z,82.78
2024-01-30T04:06:48.093Z,81.18
2024-01-30T04:09:14.727Z,81.05
2024-01-30T04:11:41.599Z,76.48
2024-01-30T04:14:08.356Z,80.57
2024-01-30T04:16:35.055Z,80.90
2024-01-30T04:19:01.760Z,80.26
2024-01-30T04:21:29.757Z,74.97
2024-01-30T04:23:56.368Z,80.86
2024-01-30T04:26:23.059Z,80.47
2024-01-30T04:28:49.701Z,80.39
2024-01-30T04:31:16.425Z,80.81
2024-01-30T04:33:43.312Z,74.10
2024-01-30T04:36:12.894Z,74.56
2024-01-30T04:38:40.907Z,83.06
2024-01-30T04:41:08.713Z,81.64
2024-01-30T04:43:35.460Z,73.55
2024-01-30T04:46:02.736Z,81.60
2024-01-30T04:48:29.416Z,80.51
2024-01-30T04:50:57.216Z,80.15
2024-01-30T04:53:24.009Z,80.25
2024-01-30T04:55:52.044Z,77.99
2024-01-30T04:58:18.789Z,81.33
2024-01-30T05:00:47.169Z,80.46
2024-01-30T05:03:14.046Z,81.03
2024-01-30T05:05:40.831Z,80.57
2024-01-30T05:08:07.587Z,81.10
2024-01-30T05:10:34.241Z,80.67
2024-01-30T05:13:02.291Z,79.94
2024-01-30T05:15:28.941Z,80.22
2024-01-30T05:17:56.295Z,80.19
2024-01-30T05:20:23.104Z,80.37
2024-01-30T05:22:49.782Z,80.08
2024-01-30T05:25:16.527Z,80.53
2024-01-30T05:27:43.286Z,80.45
2024-01-30T05:30:12.411Z,80.44
2024-01-30T05:32:39.125Z,80.72
2024-01-30T05:35:05.987Z,80.42
2024-01-30T05:37:32.621Z,80.30
2024-01-30T05:39:59.336Z,80.49
2024-01-30T05:42:26.767Z,80.16
2024-01-30T05:44:53.366Z,80.11
2024-01-30T05:47:21.364Z,80.22
2024-01-30T05:49:48.063Z,80.43
2024-01-30T05:52:16.291Z,80.32
2024-01-30T05:54:43.001Z,80.10
2024-01-30T05:57:10.022Z,80.29
2024-01-30T05:59:39.835Z,80.01
2024-01-30T06:02:08.676Z,80.70
2024-01-30T06:04:36.983Z,80.30
2024-01-30T06:07:04.190Z,80.07
2024-01-30T06:09:30.952Z,80.23
2024-01-30T06:11:57.707Z,80.23
2024-01-30T06:14:24.662Z,80.38
2024-01-30T06:16:51.339Z,80.49
2024-01-30T06:19:18.105Z,79.99
2024-01-30T06:21:46.583Z,80.16
2024-01-30T06:24:13.380Z,80.46
2024-01-30T06:26:40.059Z,71.22
2024-01-30T06:29:06.796Z,81.69
2024-01-30T06:31:33.463Z,81.60
2024-01-30T06:34:00.261Z,80.43
2024-01-30T06:36:26.971Z,80.18
2024-01-30T06:38:55.103Z,67.07
2024-01-30T06:41:21.772Z,84.24
2024-01-30T06:43:48.460Z,82.97
2024-01-30T06:46:15.199Z,81.07
2024-01-30T06:48:42.006Z,80.90
2024-01-30T06:51:08.749Z,80.29
2024-01-30T06:53:35.429Z,80.46
2024-01-30T06:56:03.832Z,80.24
2024-01-30T06:58:30.879Z,80.47
2024-01-30T07:00:57.732Z,80.61
2024-01-30T07:03:24.498Z,80.51
2024-01-30T07:05:51.224Z,80.42
2024-01-30T07:08:18.559Z,80.55
2024-01-30T07:10:45.414Z,79.45
2024-01-30T07:13:13.692Z,79.59
2024-01-30T07:15:40.372Z,80.49
2024-01-30T07:18:07.240Z,80.27
2024-01-30T07:20:34.096Z,80.54
2024-01-30T07:23:00.814Z,80.53
2024-01-30T07:25:31.066Z,80.49
2024-01-30T07:27:58.615Z,75.87
2024-01-30T07:30:26.769Z,73.23
2024-01-30T07:32:53.440Z,82.08
2024-01-30T07:35:20.177Z,80.83
2024-01-30T07:37:46.949Z,80.46
2024-01-30T07:40:13.817Z,80.50
2024-01-30T07:42:40.487Z,82.25
2024-01-30T07:45:07.730Z,81.63
2024-01-30T07:47:35.803Z,81.97
2024-01-30T07:50:02.627Z,74.18
2024-01-30T07:52:29.770Z,78.32
2024-01-30T07:54:56.742Z,81.93
2024-01-30T07:57:23.420Z,80.52
2024-01-30T07:59:50.035Z,79.92
2024-01-30T08:02:16.678Z,77.88
2024-01-30T08:04:44.770Z,81.21
2024-01-30T08:07:11.613Z,76.13
2024-01-30T08:09:38.280Z,79.13
2024-01-30T08:12:05.987Z,79.64
2024-01-30T08:14:33.017Z,79.80
2024-01-30T08:16:59.636Z,76.40
2024-01-30T08:19:26.375Z,75.25
2024-01-30T08:21:54.460Z,71.83
2024-01-30T08:24:21.133Z,70.28
2024-01-30T08:26:47.783Z,70.33
2024-01-30T08:29:14.530Z,69.73
2024-01-30T08:31:41.293Z,73.97
2024-01-30T08:34:08.069Z,68.59
2024-01-30T08:36:34.798Z,67.56
2024-01-30T08:39:05.221Z,69.42
2024-01-30T08:41:33.153Z,69.71
2024-01-30T08:43:59.809Z,72.92
2024-01-30T08:46:26.531Z,61.93
2024-01-30T08:48:53.524Z,69.65
2024-01-30T08:51:20.226Z,64.07
2024-01-30T08:53:46.994Z,63.58
2024-01-30T08:56:15.045Z,62.61
2024-01-30T08:58:41.668Z,61.50
2024-01-30T09:01:08.427Z,63.38
2024-01-30T09:03:35.291Z,66.89
2024-01-30T09:06:02.042Z,63.05
2024-01-30T09:08:29.000Z,63.53
2024-01-30T09:10:56.154Z,56.01
2024-01-30T09:13:24.318Z,67.58
2024-01-30T09:15:51.022Z,54.63
2024-01-30T09:18:17.839Z,50.05
2024-01-30T09:20:46.531Z,49.66
2024-01-30T09:23:13.212Z,49.65
2024-01-30T09:25:39.885Z,51.30
2024-01-30T09:28:07.215Z,51.20
2024-01-30T09:30:35.233Z,50.53
2024-01-30T09:33:01.995Z,51.34
2024-01-30T09:35:28.820Z,51.91
2024-01-30T09:37:55.606Z,51.23
2024-01-30T09:40:22.501Z,52.36
2024-01-30T09:42:51.688Z,57.47
2024-01-30T09:45:19.192Z,48.18
2024-01-30T09:47:47.631Z,43.84
2024-01-30T09:50:16.311Z,49.59
2024-01-30T09:52:44.185Z,47.42
2024-01-30T09:55:11.204Z,43.97
2024-01-30T09:57:37.895Z,42.17
2024-01-30T10:00:05.584Z,44.09
2024-01-30T10:02:32.779Z,49.15
2024-01-30T10:05:01.820Z,52.20
2024-01-30T10:07:29.099Z,50.06
2024-01-30T10:09:58.637Z,49.47
2024-01-30T10:12:27.368Z,46.38
2024-01-30T10:14:54.952Z,43.24
2024-01-30T10:17:32.186Z,54.24
2024-01-30T10:20:06.104Z,54.57
2024-01-30T10:22:33.240Z,58.08
2024-01-30T10:25:04.564Z,62.30
2024-01-30T10:27:32.853Z,44.33
2024-01-30T10:29:59.506Z,41.88
2024-01-30T10:32:26.894Z,41.51
2024-01-30T10:34:53.853Z,41.14
2024-01-30T10:37:26.094Z,43.17
2024-01-30T10:39:54.764Z,37.79
2024-01-30T10:42:24.804Z,40.42
2024-01-30T10:44:59.069Z,41.05
2024-01-30T10:47:28.518Z,45.38
2024-01-30T10:49:55.828Z,43.04
2024-01-30T10:52:26.891Z,42.92
2024-01-30T10:54:55.574Z,40.82
2024-01-30T10:57:25.421Z,45.01
2024-01-30T10:59:53.858Z,42.11
2024-01-30T11:02:21.200Z,41.27
2024-01-30T11:04:49.248Z,39.07
2024-01-30T11:07:17.393Z,42.82
2024-01-30T11:09:52.073Z,41.37
2024-01-30T11:12:23.393Z,41.70
2024-01-30T11:14:50.161Z,38.27
2024-01-30T11:17:16.872Z,36.20
2024-01-30T11:19:43.696Z,37.03
2024-01-30T11:22:12.859Z,38.04
2024-01-30T11:24:43.175Z,38.32
2024-01-30T11:27:11.570Z,41.35
2024-01-30T11:29:38.683Z,41.28
2024-01-30T11:32:06.452Z,41.42
2024-01-30T11:34:35.272Z,44.44
2024-01-30T11:37:10.551Z,48.85
2024-01-30T11:39:37.767Z,49.58
2024-01-30T11:42:09.932Z,47.15
2024-01-30T11:44:37.907Z,46.20
2024-01-30T11:47:04.801Z,49.44
2024-01-30T11:49:31.804Z,48.83
2024-01-30T11:51:58.833Z,46.90
2024-01-30T11:54:25.592Z,47.00
2024-01-30T11:56:52.236Z,48.48
2024-01-30T11:59:18.897Z,47.68
2024-01-30T12:01:46.988Z,47.94
2024-01-30T12:04:13.752Z,48.77
2024-01-30T12:06:41.587Z,48.09
2024-01-30T12:09:09.884Z,49.68
2024-01-30T12:11:45.427Z,53.03
2024-01-30T12:14:13.466Z,51.46
2024-01-30T12:16:40.152Z,48.37
2024-01-30T12:19:08.265Z,46.17
2024-01-30T12:21:36.026Z,52.68
2024-01-30T12:24:02.779Z,51.44
2024-01-30T12:26:29.416Z,50.49
2024-01-30T12:28:59.246Z,50.39
2024-01-30T12:31:28.094Z,47.36
2024-01-30T12:33:54.996Z,49.54
2024-01-30T12:36:24.112Z,48.17
2024-01-30T12:38:51.164Z,47.33
2024-01-30T12:41:17.989Z,47.66
2024-01-30T12:43:45.051Z,48.56
2024-01-30T12:46:11.801Z,50.30
2024-01-30T12:48:38.781Z,48.38
2024-01-30T12:51:05.864Z,53.97
2024-01-30T12:53:34.222Z,51.25
2024-01-30T12:56:00.893Z,53.13
2024-01-30T12:58:27.600Z,50.83
2024-01-30T13:00:55.584Z,50.33
2024-01-30T13:03:23.122Z,48.90
2024-01-30T13:05:50.126Z,49.04
2024-01-30T13:08:16.835Z,49.76
2024-01-30T13:10:46.445Z,50.67
2024-01-30T13:13:19.703Z,52.02
2024-01-30T13:15:47.629Z,52.81
2024-01-30T13:18:14.507Z,53.12
2024-01-30T13:20:41.203Z,49.00
2024-01-30T13:23:07.852Z,50.00
2024-01-30T13:25:34.551Z,49.22
2024-01-30T13:28:02.631Z,50.26
2024-01-30T13:30:29.325Z,52.72
2024-01-30T13:32:55.985Z,52.30
2024-01-30T13:35:22.671Z,51.70
2024-01-30T13:37:49.826Z,50.11
2024-01-30T13:40:17.746Z,49.16
2024-01-30T13:42:44.640Z,50.03
2024-01-30T13:45:12.661Z,49.82
2024-01-30T13:47:39.570Z,51.75
2024-01-30T13:50:06.668Z,57.45
2024-01-30T13:52:41.084Z,64.42
2024-01-30T13:55:11.099Z,58.20
2024-01-30T13:57:38.407Z,52.69
2024-01-30T14:00:08.804Z,52.06
2024-01-30T14:02:36.938Z,49.88
2024-01-30T14:05:05.870Z,51.12
2024-01-30T14:07:32.948Z,50.83
2024-01-30T14:09:59.676Z,52.83
2024-01-30T14:12:26.323Z,47.40
2024-01-30T14:14:52.926Z,50.97
2024-01-30T14:17:19.567Z,56.46
2024-01-30T14:19:47.645Z,52.29
2024-01-30T14:22:14.409Z,54.32
2024-01-30T14:24:41.134Z,49.46
2024-01-30T14:27:09.370Z,51.15
2024-01-30T14:29:36.253Z,54.27
2024-01-30T14:32:03.024Z,59.59
2024-01-30T14:34:29.714Z,62.41
2024-01-30T14:36:57.957Z,64.74
2024-01-30T14:39:24.752Z,61.27
2024-01-30T14:41:51.410Z,64.16
2024-01-30T14:44:18.069Z,65.51
2024-01-30T14:46:44.763Z,67.49
2024-01-30T14:49:11.492Z,65.58
2024-01-30T14:51:38.990Z,71.35
2024-01-30T14:54:07.201Z,68.58
2024-01-30T14:56:33.994Z,67.38
2024-01-30T14:59:01.131Z,69.68
2024-01-30T15:01:27.867Z,65.75
2024-01-30T15:03:56.425Z,65.40
2024-01-30T15:06:26.632Z,70.46
2024-01-30T15:08:53.620Z,67.71
2024-01-30T15:11:22.297Z,67.64
2024-01-30T15:13:48.929Z,70.15
2024-01-30T15:16:15.803Z,70.10
2024-01-30T15:18:42.549Z,68.71
2024-01-30T15:21:09.257Z,68.37
2024-01-30T15:23:36.383Z,69.13
2024-01-30T15:26:03.285Z,72.19
2024-01-30T15:28:38.790Z,69.56
2024-01-30T15:31:06.649Z,71.00
2024-01-30T15:33:34.218Z,72.56
2024-01-30T15:36:01.736Z,68.45
2024-01-30T15:38:29.785Z,67.58
2024-01-30T15:40:57.422Z,71.43
2024-01-30T15:43:25.150Z,70.38
2024-01-30T15:45:53.764Z,71.23
2024-01-30T15:48:21.184Z,74.69
2024-01-30T15:50:48.117Z,73.94
2024-01-30T15:53:14.836Z,73.89
2024-01-30T15:55:41.760Z,73.67
2024-01-30T15:58:08.529Z,74.90
2024-01-30T16:00:35.305Z,75.56
2024-01-30T16:03:03.415Z,75.29
2024-01-30T16:05:30.069Z,76.12
2024-01-30T16:07:56.740Z,75.40
2024-01-30T16:10:23.496Z,75.76
2024-01-30T16:12:50.938Z,75.34
2024-01-30T16:15:19.395Z,75.51
2024-01-30T16:17:46.176Z,75.34
2024-01-30T16:20:17.219Z,74.80
2024-01-30T16:22:43.968Z,70.80
2024-01-30T16:25:11.537Z,74.56
2024-01-30T16:27:38.241Z,75.43
2024-01-30T16:30:06.044Z,74.41
2024-01-30T16:32:33.180Z,78.98
2024-01-30T16:35:00.018Z,78.44
2024-01-30T16:37:28.072Z,74.39
2024-01-30T16:39:54.785Z,76.75
2024-01-30T16:42:21.479Z,77.04
2024-01-30T16:44:48.492Z,76.53
2024-01-30T16:47:15.383Z,74.35
2024-01-30T16:49:42.164Z,76.04
2024-01-30T16:52:08.983Z,76.84
2024-01-30T16:54:37.009Z,71.25
2024-01-30T16:57:04.347Z,74.20
2024-01-30T16:59:30.980Z,78.97
2024-01-30T17:01:57.913Z,76.55
2024-01-30T17:04:24.809Z,79.18
2024-01-30T17:06:53.537Z,79.79
2024-01-30T17:09:20.418Z,80.12
2024-01-30T17:11:48.526Z,78.40
2024-01-30T17:14:15.768Z,78.71
2024-01-30T17:16:42.926Z,79.87
2024-01-30T17:19:09.800Z,79.05
2024-01-30T17:21:38.092Z,74.08
2024-01-30T17:24:05.505Z,77.92
2024-01-30T17:26:32.255Z,78.14
2024-01-30T17:29:00.343Z,78.13
2024-01-30T17:31:27.027Z,78.69
2024-01-30T17:33:53.932Z,78.54
2024-01-30T17:36:20.645Z,77.13
2024-01-30T17:38:48.264Z,73.90
2024-01-30T17:41:15.045Z,78.76
2024-01-30T17:43:41.650Z,79.26
2024-01-30T17:46:09.958Z,78.71
2024-01-30T17:48:36.858Z,77.69
2024-01-30T17:51:04.365Z,75.78
2024-01-30T17:53:31.064Z,73.02
2024-01-30T17:56:01.760Z,77.85
2024-01-30T17:58:28.547Z,72.47
2024-01-30T18:00:57.954Z,78.30
2024-01-30T18:03:26.087Z,70.66
2024-01-30T18:05:53.729Z,78.07
2024-01-30T18:08:20.370Z,78.32
2024-01-30T18:10:47.133Z,78.56
2024-01-30T18:13:14.601Z,79.10
2024-01-30T18:15:41.539Z,78.78
2024-01-30T18:18:08.338Z,77.62
2024-01-30T18:20:36.361Z,79.25
2024-01-30T18:23:02.996Z,78.30
2024-01-30T18:25:29.768Z,78.50
2024-01-30T18:27:56.612Z,72.54
2024-01-30T18:30:23.346Z,70.04
2024-01-30T18:32:50.259Z,77.38
2024-01-30T18:35:17.059Z,77.94
2024-01-30T18:37:45.322Z,76.52
2024-01-30T18:40:13.855Z,73.48
2024-01-30T18:42:40.920Z,75.92
2024-01-30T18:45:08.891Z,77.54
2024-01-30T18:47:35.569Z,78.17
2024-01-30T18:50:02.378Z,78.82
2024-01-30T18:52:29.166Z,76.78
2024-01-30T18:54:57.230Z,77.79
2024-01-30T18:57:23.944Z,78.33
2024-01-30T18:59:50.603Z,79.99
2024-01-30T19:02:17.301Z,78.62
2024-01-30T19:04:44.313Z,76.91
2024-01-30T19:07:11.122Z,67.34
2024-01-30T19:09:38.904Z,78.31
2024-01-30T19:12:07.863Z,69.55
2024-01-30T19:14:36.395Z,78.28
2024-01-30T19:17:03.734Z,77.85
2024-01-30T19:19:30.431Z,77.35
2024-01-30T19:21:57.222Z,67.59
2024-01-30T19:24:23.872Z,76.54
2024-01-30T19:26:53.071Z,68.85
2024-01-30T19:29:21.074Z,71.56
2024-01-30T19:31:48.312Z,76.59
2024-01-30T19:34:15.311Z,67.22
2024-01-30T19:36:42.049Z,71.06
2024-01-30T19:39:14.382Z,78.24
2024-01-30T19:41:42.191Z,77.04
2024-01-30T19:44:09.493Z,76.59
2024-01-30T19:46:38.344Z,78.80
2024-01-30T19:49:05.270Z,78.76
2024-01-30T19:51:31.998Z,78.33
2024-01-30T19:53:58.634Z,78.48
2024-01-30T19:56:25.270Z,78.52
2024-01-30T19:58:52.010Z,77.63
2024-01-30T20:01:18.944Z,79.51
2024-01-30T20:03:47.084Z,78.57
2024-01-30T20:06:13.999Z,69.34
2024-01-30T20:08:40.792Z,79.84
2024-01-30T20:11:13.898Z,69.72
2024-01-30T20:13:41.471Z,79.43
2024-01-30T20:16:08.772Z,78.60
2024-01-30T20:18:35.508Z,77.91
2024-01-30T20:21:03.918Z,76.97
2024-01-30T20:23:31.606Z,74.67
2024-01-30T20:25:59.131Z,76.95
2024-01-30T20:28:26.956Z,77.30
2024-01-30T20:30:53.898Z,78.27
2024-01-30T20:33:20.634Z,77.86
2024-01-30T20:35:47.306Z,78.48
2024-01-30T20:38:15.317Z,78.73
2024-01-30T20:40:43.227Z,78.25
2024-01-30T20:43:10.035Z,78.72
2024-01-30T20:45:36.730Z,79.80
2024-01-30T20:48:03.920Z,79.69
2024-01-30T20:50:30.855Z,79.20
2024-01-30T20:52:57.522Z,78.33
2024-01-30T20:55:25.681Z,69.68
2024-01-30T20:57:52.373Z,79.39
2024-01-30T21:00:19.734Z,78.57
2024-01-30T21:02:46.368Z,70.71
2024-01-30T21:05:13.357Z,78.57
2024-01-30T21:07:40.159Z,79.01
2024-01-30T21:10:09.443Z,78.34
2024-01-30T21:12:37.516Z,78.17
2024-01-30T21:15:04.997Z,77.52
2024-01-30T21:17:31.663Z,71.07
2024-01-30T21:19:59.097Z,78.04
2024-01-30T21:22:26.057Z,72.23
2024-01-30T21:24:52.823Z,74.86
2024-01-30T21:27:19.522Z,77.91
2024-01-30T21:29:47.625Z,80.06
2024-01-30T21:32:14.308Z,70.68
2024-01-30T21:34:41.274Z,79.65
2024-01-30T21:37:08.174Z,70.73
2024-01-30T21:39:34.920Z,76.95
2024-01-30T21:42:01.529Z,79.75
2024-01-30T21:44:30.690Z,73.56
2024-01-30T21:46:59.567Z,79.62
2024-01-30T21:49:26.977Z,72.90
2024-01-30T21:51:54.901Z,74.73
2024-01-30T21:54:21.596Z,82.07
2024-01-30T21:56:48.471Z,79.30
2024-01-30T21:59:15.097Z,78.87
2024-01-30T22:01:41.917Z,79.38
2024-01-30T22:04:09.947Z,78.66
2024-01-30T22:06:39.706Z,74.48
2024-01-30T22:09:06.476Z,76.95
2024-01-30T22:11:33.197Z,81.71
2024-01-30T22:13:59.923Z,79.96
2024-01-30T22:16:26.711Z,74.14
2024-01-30T22:18:53.374Z,73.92
2024-01-30T22:21:21.355Z,81.43
2024-01-30T22:23:48.042Z,80.13
2024-01-30T22:26:16.174Z,79.28
2024-01-30T22:28:42.890Z,71.07
2024-01-30T22:31:09.658Z,78.27
2024-01-30T22:33:36.313Z,79.15
2024-01-30T22:36:03.044Z,77.92
2024-01-30T22:38:31.027Z,78.65
2024-01-30T22:40:58.220Z,79.34
2024-01-30T22:43:25.885Z,78.93
2024-01-30T22:45:52.565Z,79.05
2024-01-30T22:48:19.272Z,78.91
2024-01-30T22:50:45.942Z,79.83
2024-01-30T22:53:12.859Z,79.52
2024-01-30T22:55:40.987Z,79.05
2024-01-30T22:58:07.801Z,78.37
2024-01-30T23:00:34.527Z,72.54
2024-01-30T23:03:01.211Z,78.99
2024-01-30T23:05:28.042Z,79.08
2024-01-30T23:07:54.667Z,77.25
2024-01-30T23:10:21.475Z,71.65
2024-01-30T23:12:49.438Z,78.19
2024-01-30T23:15:16.352Z,71.46
2024-01-30T23:17:43.496Z,76.13
2024-01-30T23:20:11.324Z,80.72
2024-01-30T23:22:38.198Z,80.56
2024-01-30T23:25:05.259Z,80.20
2024-01-30T23:27:31.917Z,80.95
2024-01-30T23:30:00.147Z,78.79
2024-01-30T23:32:34.691Z,79.38
2024-01-30T23:35:07.285Z,79.03
2024-01-30T23:37:34.406Z,74.37
2024-01-30T23:40:01.178Z,77.09
2024-01-30T23:42:27.928Z,80.05
2024-01-30T23:44:54.967Z,78.32
2024-01-30T23:47:22.999Z,78.56
2024-01-30T23:49:49.816Z,78.92
2024-01-30T23:52:16.599Z,78.84
2024-01-30T23:54:43.323Z,78.07
2024-01-30T23:57:10.002Z,77.42
2024-01-30T23:59:36.687Z,77.92
